Time,TemperatureF,DewpointF,PressureIn,WindDirection,WindDirectionDegrees,WindSpeedMPH,WindSpeedGustMPH,Humidity,HourlyPrecipIn,Conditions,Clouds,dailyrainin,SolarRadiationWatts/m^2,SoftwareType,DateUTC
2013-02-20 00:10:00,22.0,10.0,30.20,East,98,10.0,22.0,61,0.00,,,0.00,0,weatherlink.com 1.10,2013-02-20 06:10:00,
2013-02-20 00:25:00,21.6,10.0,30.20,ENE,70,12.0,22.0,60,0.00,,,0.00,0,weatherlink.com 1.10,2013-02-20 06:25:00,
2013-02-20 00:40:00,21.5,9.0,30.20,ESE,102,16.0,23.0,59,0.00,,,0.00,0,weatherlink.com 1.10,2013-02-20 06:40:00,
2013-02-20 00:55:00,21.3,8.0,30.19,East,82,17.0,21.0,58,0.00,,,0.00,0,weatherlink.com 1.10,2013-02-20 06:55:00,
2013-02-20 01:10:00,21.0,8.0,30.19,ESE,115,16.0,20.0,57,0.00,,,0.00,0,weatherlink.com 1.10,2013-02-20 07:10:00,
2013-02-20 01:25:00,20.6,7.0,30.19,ESE,110,13.0,19.0,56,0.00,,,0.00,0,weatherlink.com 1.10,2013-02-20 07:25:00,
2013-02-20 01:41:00,20.2,7.0,30.19,ESE,114,13.0,19.0,56,0.00,,,0.00,0,weatherlink.com 1.10,2013-02-20 07:41:00,
2013-02-20 01:56:00,19.9,6.0,30.19,ENE,62,10.0,19.0,56,0.00,,,0.00,0,weatherlink.com 1.10,2013-02-20 07:56:00,
2013-02-20 02:11:00,19.8,6.0,30.18,East,84,10.0,19.0,56,0.00,,,0.00,0,weatherlink.com 1.10,2013-02-20 08:11:00,
2013-02-20 02:26:00,19.7,6.0,30.18,ESE,118,11.0,19.0,56,0.00,,,0.00,0,weatherlink.com 1.10,2013-02-20 08:26:00,
2013-02-20 02:41:00,19.5,6.0,30.18,East,94,13.0,19.0,56,0.00,,,0.00,0,weatherlink.com 1.10,2013-02-20 08:41:00,
2013-02-20 02:56:00,19.1,6.0,30.18,ESE,105,10.0,18.0,56,0.00,,,0.00,0,weatherlink.com 1.10,2013-02-20 08:56:00,
2013-02-20 03:11:00,18.8,5.0,30.17,East,101,13.0,19.0,56,0.00,,,0.00,0,weatherlink.com 1.10,2013-02-20 09:11:00,
2013-02-20 03:26:00,18.5,5.0,30.16,ENE,76,12.0,21.0,57,0.00,,,0.00,0,weatherlink.com 1.10,2013-02-20 09:26:00,
2013-02-20 03:41:00,18.2,5.0,30.16,ESE,115,8.0,17.0,57,0.00,,,0.00,0,weatherlink.com 1.10,2013-02-20 09:41:00,
2013-02-20 03:56:00,17.9,5.0,30.15,ESE,114,13.0,16.0,58,0.00,,,0.00,0,weatherlink.com 1.10,2013-02-20 09:56:00,
2013-02-20 04:11:00,17.8,5.0,30.14,East,80,9.0,18.0,58,0.00,,,0.00,0,weatherlink.com 1.10,2013-02-20 10:11:00,
2013-02-20 04:26:00,18.0,5.0,30.14,East,84,8.0,17.0,58,0.00,,,0.00,0,weatherlink.com 1.10,2013-02-20 10:26:00,
2013-02-20 04:41:00,18.1,5.0,30.13,East,98,13.0,18.0,58,0.00,,,0.00,0,weatherlink.com 1.10,2013-02-20 10:41:00,
2013-02-20 04:56:00,18.3,5.0,30.13,ENE,76,9.0,21.0,57,0.00,,,0.00,0,weatherlink.com 1.10,2013-02-20 10:56:00,
2013-02-20 05:11:00,18.6,5.0,30.14,East,98,16.0,22.0,55,0.00,,,0.00,0,weatherlink.com 1.10,2013-02-20 11:11:00,
2013-02-20 05:26:00,18.5,5.0,30.14,SE,131,10.0,22.0,55,0.00,,,0.00,0,weatherlink.com 1.10,2013-02-20 11:26:00,
2013-02-20 05:41:00,18.8,5.0,30.14,East,82,11.0,18.0,55,0.00,,,0.00,0,weatherlink.com 1.10,2013-02-20 11:41:00,
2013-02-20 05:56:00,18.9,5.0,30.14,NE,46,9.0,18.0,54,0.00,,,0.00,0,weatherlink.com 1.10,2013-02-20 11:56:00,
2013-02-20 06:11:00,18.9,5.0,30.14,ESE,106,9.0,16.0,55,0.00,,,0.00,0,weatherlink.com 1.10,2013-02-20 12:11:00,
2013-02-20 06:26:00,19.0,5.0,30.13,ENE,74,10.0,18.0,55,0.00,,,0.00,0,weatherlink.com 1.10,2013-02-20 12:26:00,
2013-02-20 06:41:00,19.2,6.0,30.14,East,84,13.0,22.0,56,0.00,,,0.00,0,weatherlink.com 1.10,2013-02-20 12:41:00,
2013-02-20 06:56:00,19.5,6.0,30.13,SE,141,13.0,21.0,56,0.00,,,0.00,0,weatherlink.com 1.10,2013-02-20 12:56:00,
2013-02-20 07:11:00,19.7,6.0,30.13,SE,128,13.0,18.0,55,0.00,,,0.00,0,weatherlink.com 1.10,2013-02-20 13:11:00,
2013-02-20 07:26:00,19.9,6.0,30.14,East,89,10.0,21.0,56,0.00,,,0.00,0,weatherlink.com 1.10,2013-02-20 13:26:00,
2013-02-20 07:41:00,20.1,7.0,30.14,East,94,9.0,21.0,56,0.00,,,0.00,0,weatherlink.com 1.10,2013-02-20 13:41:00,
2013-02-20 07:56:00,20.1,7.0,30.14,ESE,113,9.0,17.0,57,0.00,,,0.00,5,weatherlink.com 1.10,2013-02-20 13:56:00,
2013-02-20 08:11:00,20.1,7.0,30.14,ENE,67,9.0,21.0,58,0.00,,,0.00,9,weatherlink.com 1.10,2013-02-20 14:11:00,
2013-02-20 08:26:00,20.0,8.0,30.14,ENE,75,11.0,19.0,59,0.00,,,0.00,12,weatherlink.com 1.10,2013-02-20 14:26:00,
2013-02-20 08:41:00,20.0,8.0,30.14,ESE,102,9.0,17.0,61,0.00,,,0.00,11,weatherlink.com 1.10,2013-02-20 14:41:00,
2013-02-20 08:56:00,20.0,9.0,30.15,East,81,13.0,17.0,63,0.00,,,0.00,12,weatherlink.com 1.10,2013-02-20 14:56:00,
2013-02-20 09:11:00,19.7,10.0,30.15,ESE,109,11.0,17.0,66,0.00,,,0.00,21,weatherlink.com 1.10,2013-02-20 15:11:00,
2013-02-20 09:26:00,19.7,11.0,30.14,ENE,66,11.0,16.0,69,0.00,,,0.00,30,weatherlink.com 1.10,2013-02-20 15:26:00,
2013-02-20 09:41:00,19.5,12.0,30.14,East,88,13.0,21.0,73,0.00,,,0.00,53,weatherlink.com 1.10,2013-02-20 15:41:00,
2013-02-20 09:56:00,18.9,13.0,30.15,ESE,116,11.0,19.0,78,0.00,,,0.00,54,weatherlink.com 1.10,2013-02-20 15:56:00,
2013-02-20 10:11:00,18.8,14.0,30.14,ENE,66,9.0,19.0,80,0.00,,,0.00,77,weatherlink.com 1.10,2013-02-20 16:11:00,
2013-02-20 10:26:00,18.8,14.0,30.14,East,95,14.0,16.0,82,0.00,,,0.00,76,weatherlink.com 1.10,2013-02-20 16:26:00,
2013-02-20 10:41:00,18.7,14.0,30.14,East,99,9.0,17.0,83,0.00,,,0.00,98,weatherlink.com 1.10,2013-02-20 16:41:00,
2013-02-20 10:56:00,19.4,15.0,30.14,East,97,10.0,21.0,84,0.00,,,0.00,135,weatherlink.com 1.10,2013-02-20 16:56:00,
2013-02-20 11:12:00,19.6,16.0,30.13,East,95,11.0,22.0,85,0.00,,,0.00,118,weatherlink.com 1.10,2013-02-20 17:12:00,
2013-02-20 11:27:00,20.4,17.0,30.13,South,173,12.0,18.0,86,0.00,,,0.00,149,weatherlink.com 1.10,2013-02-20 17:27:00,
2013-02-20 11:42:00,20.7,17.0,30.12,East,83,9.0,21.0,86,0.00,,,0.00,100,weatherlink.com 1.10,2013-02-20 17:42:00,
2013-02-20 11:57:00,21.2,18.0,30.12,ESE,112,11.0,21.0,87,0.00,,,0.00,123,weatherlink.com 1.10,2013-02-20 17:57:00,
2013-02-20 12:12:00,21.5,18.0,30.11,East,94,11.0,18.0,87,0.00,,,0.00,90,weatherlink.com 1.10,2013-02-20 18:12:00,
2013-02-20 12:27:00,22.2,19.0,30.10,East,101,11.0,19.0,87,0.00,,,0.00,139,weatherlink.com 1.10,2013-02-20 18:27:00,
2013-02-20 12:42:00,23.2,20.0,30.10,SE,130,10.0,16.0,87,0.00,,,0.00,135,weatherlink.com 1.10,2013-02-20 18:42:00,
2013-02-20 12:57:00,23.5,20.0,30.09,ESE,109,11.0,18.0,87,0.00,,,0.00,128,weatherlink.com 1.10,2013-02-20 18:57:00,
2013-02-20 13:12:00,24.2,21.0,30.08,ESE,111,10.0,22.0,88,0.00,,,0.00,137,weatherlink.com 1.10,2013-02-20 19:12:00,
2013-02-20 13:27:00,24.1,21.0,30.08,East,80,20.0,22.0,88,0.00,,,0.00,116,weatherlink.com 1.10,2013-02-20 19:27:00,
2013-02-20 13:42:00,23.4,21.0,30.07,East,98,8.0,19.0,89,0.00,,,0.00,83,weatherlink.com 1.10,2013-02-20 19:42:00,
2013-02-20 13:57:00,22.5,20.0,30.06,ESE,103,16.0,17.0,90,0.00,,,0.00,81,weatherlink.com 1.10,2013-02-20 19:57:00,
2013-02-20 14:12:00,21.8,19.0,30.05,East,86,16.0,19.0,90,0.00,,,0.00,95,weatherlink.com 1.10,2013-02-20 20:12:00,
2013-02-20 14:42:00,20.4,18.0,30.04,East,90,15.0,23.0,91,0.00,,,0.00,139,weatherlink.com 1.10,2013-02-20 20:42:00,
2013-02-20 14:57:00,20.2,18.0,30.04,East,100,18.0,21.0,91,0.00,,,0.00,118,weatherlink.com 1.10,2013-02-20 20:57:00,
2013-02-20 15:12:00,20.1,18.0,30.04,East,90,21.0,24.0,91,0.00,,,0.00,174,weatherlink.com 1.10,2013-02-20 21:12:00,
2013-02-20 15:27:00,20.2,18.0,30.03,East,92,23.0,25.0,91,0.00,,,0.00,148,weatherlink.com 1.10,2013-02-20 21:27:00,
2013-02-20 15:42:00,19.9,18.0,30.03,East,93,18.0,24.0,91,0.00,,,0.00,120,weatherlink.com 1.10,2013-02-20 21:42:00,
2013-02-20 15:57:00,19.6,17.0,30.03,East,82,15.0,23.0,91,0.00,,,0.00,104,weatherlink.com 1.10,2013-02-20 21:57:00,
2013-02-20 16:12:00,19.5,17.0,30.02,ENE,59,16.0,27.0,91,0.00,,,0.00,97,weatherlink.com 1.10,2013-02-20 22:12:00,
2013-02-20 16:27:00,19.8,18.0,30.03,East,98,13.0,22.0,91,0.00,,,0.00,93,weatherlink.com 1.10,2013-02-20 22:27:00,
2013-02-20 16:42:00,19.7,18.0,30.02,East,91,18.0,22.0,91,0.00,,,0.00,67,weatherlink.com 1.10,2013-02-20 22:42:00,
2013-02-20 16:57:00,19.6,17.0,30.02,SSE,147,14.0,18.0,91,0.00,,,0.00,63,weatherlink.com 1.10,2013-02-20 22:57:00,
2013-02-20 17:12:00,19.4,17.0,30.03,East,83,13.0,16.0,91,0.00,,,0.00,63,weatherlink.com 1.10,2013-02-20 23:12:00,
2013-02-20 17:27:00,19.1,17.0,30.02,ENE,73,11.0,17.0,91,0.00,,,0.00,37,weatherlink.com 1.10,2013-02-20 23:27:00,
2013-02-20 17:43:00,19.2,17.0,30.02,ESE,110,11.0,16.0,91,0.00,,,0.00,37,weatherlink.com 1.10,2013-02-20 23:43:00,
2013-02-20 17:57:00,19.0,17.0,30.02,East,83,16.0,22.0,91,0.00,,,0.00,21,weatherlink.com 1.10,2013-02-20 23:57:00,
2013-02-20 18:12:00,19.0,17.0,30.02,ESE,108,12.0,17.0,91,0.00,,,0.00,7,weatherlink.com 1.10,2013-02-21 00:12:00,
2013-02-20 18:27:00,19.0,17.0,30.03,East,81,10.0,18.0,91,0.00,,,0.00,0,weatherlink.com 1.10,2013-02-21 00:27:00,
2013-02-20 18:42:00,19.1,17.0,30.03,ESE,113,13.0,18.0,91,0.00,,,0.00,0,weatherlink.com 1.10,2013-02-21 00:42:00,
2013-02-20 18:57:00,19.3,17.0,30.04,East,80,10.0,18.0,91,0.00,,,0.00,0,weatherlink.com 1.10,2013-02-21 00:57:00,
2013-02-20 19:12:00,19.6,17.0,30.04,East,96,15.0,19.0,91,0.00,,,0.00,0,weatherlink.com 1.10,2013-02-21 01:12:00,
2013-02-20 19:27:00,19.8,18.0,30.05,East,82,18.0,21.0,91,0.00,,,0.00,0,weatherlink.com 1.10,2013-02-21 01:27:00,
2013-02-20 19:42:00,19.5,17.0,30.05,NE,56,12.0,19.0,91,0.00,,,0.00,0,weatherlink.com 1.10,2013-02-21 01:42:00,
2013-02-20 19:57:00,19.5,17.0,30.05,East,98,14.0,19.0,91,0.00,,,0.00,0,weatherlink.com 1.10,2013-02-21 01:57:00,
2013-02-20 20:12:00,19.6,17.0,30.06,NE,46,11.0,19.0,91,0.00,,,0.00,0,weatherlink.com 1.10,2013-02-21 02:12:00,
2013-02-20 20:27:00,19.8,18.0,30.06,East,86,16.0,19.0,91,0.00,,,0.00,0,weatherlink.com 1.10,2013-02-21 02:27:00,
2013-02-20 20:42:00,19.9,18.0,30.05,East,98,15.0,19.0,91,0.00,,,0.00,0,weatherlink.com 1.10,2013-02-21 02:42:00,
2013-02-20 20:58:00,20.0,18.0,30.06,East,94,15.0,25.0,92,0.00,,,0.00,0,weatherlink.com 1.10,2013-02-21 02:58:00,
2013-02-20 21:13:00,19.9,18.0,30.06,ESE,105,12.0,22.0,91,0.00,,,0.00,0,weatherlink.com 1.10,2013-02-21 03:13:00,
2013-02-20 21:28:00,20.0,18.0,30.06,East,92,18.0,21.0,91,0.00,,,0.00,0,weatherlink.com 1.10,2013-02-21 03:28:00,
2013-02-20 21:43:00,20.1,18.0,30.07,East,86,17.0,21.0,92,0.00,,,0.00,0,weatherlink.com 1.10,2013-02-21 03:43:00,
2013-02-20 21:58:00,20.3,18.0,30.06,East,90,16.0,22.0,92,0.00,,,0.00,0,weatherlink.com 1.10,2013-02-21 03:58:00,
2013-02-20 22:13:00,20.5,19.0,30.06,ENE,67,21.0,24.0,92,0.00,,,0.00,0,weatherlink.com 1.10,2013-02-21 04:13:00,
2013-02-20 22:28:00,20.7,19.0,30.06,ESE,104,13.0,23.0,92,0.00,,,0.00,0,weatherlink.com 1.10,2013-02-21 04:28:00,
2013-02-20 22:43:00,20.9,19.0,30.06,East,99,16.0,26.0,92,0.00,,,0.00,0,weatherlink.com 1.10,2013-02-21 04:43:00,
2013-02-20 22:58:00,21.0,19.0,30.06,ESE,107,15.0,24.0,92,0.00,,,0.00,0,weatherlink.com 1.10,2013-02-21 04:58:00,
2013-02-20 23:13:00,21.0,19.0,30.06,East,94,14.0,23.0,92,0.00,,,0.00,0,weatherlink.com 1.10,2013-02-21 05:13:00,
2013-02-20 23:28:00,20.9,19.0,30.05,ENE,67,12.0,24.0,92,0.00,,,0.00,0,weatherlink.com 1.10,2013-02-21 05:28:00,
2013-02-20 23:43:00,20.8,19.0,30.05,East,80,20.0,23.0,92,0.00,,,0.00,0,weatherlink.com 1.10,2013-02-21 05:43:00,
2013-02-20 23:58:00,20.7,19.0,30.05,ENE,59,17.0,25.0,92,0.00,,,0.00,0,weatherlink.com 1.10,2013-02-21 05:58:00,